createdAt,value
2017-10-08T00:00:16.904Z,26.40
2017-10-08T00:02:47.772Z,26.40
2017-10-08T00:05:18.300Z,26.40
2017-10-08T00:07:49.854Z,26.40
2017-10-08T00:10:21.155Z,26.40
2017-10-08T00:12:51.642Z,26.40
2017-10-08T00:15:22.124Z,26.40
2017-10-08T00:17:52.782Z,26.40
2017-10-08T00:20:23.803Z,26.50
2017-10-08T00:22:54.298Z,26.50
2017-10-08T00:25:24.521Z,26.50
2017-10-08T00:27:54.985Z,26.60
2017-10-08T00:30:25.493Z,26.60
2017-10-08T00:32:56.645Z,26.70
2017-10-08T00:35:27.158Z,26.70
2017-10-08T00:37:58.200Z,26.70
2017-10-08T00:40:28.704Z,26.70
2017-10-08T00:42:59.989Z,26.80
2017-10-08T00:45:30.493Z,26.80
2017-10-08T00:48:00.994Z,26.90
2017-10-08T00:50:32.737Z,27.00
2017-10-08T00:53:03.249Z,27.10
2017-10-08T00:55:33.807Z,27.20
2017-10-08T00:58:04.373Z,27.30
2017-10-08T01:00:35.141Z,27.40
2017-10-08T01:03:06.005Z,27.60
2017-10-08T01:05:36.524Z,27.70
2017-10-08T01:08:07.359Z,27.80
2017-10-08T01:10:37.848Z,27.80
2017-10-08T01:13:08.348Z,27.90
2017-10-08T01:15:39.637Z,28.10
2017-10-08T01:18:10.145Z,28.10
2017-10-08T01:20:41.914Z,28.30
2017-10-08T01:23:12.429Z,28.20
2017-10-08T01:25:43.484Z,28.30
2017-10-08T01:28:14.001Z,28.30
2017-10-08T01:30:44.540Z,28.40
2017-10-08T01:33:15.681Z,28.40
2017-10-08T01:35:46.212Z,28.40
2017-10-08T01:38:19.389Z,28.50
2017-10-08T01:40:49.919Z,28.50
2017-10-08T01:43:20.432Z,28.70
2017-10-08T01:45:51.745Z,28.80
2017-10-08T01:48:23.297Z,28.80
2017-10-08T01:50:54.116Z,28.90
2017-10-08T01:53:24.683Z,29.00
2017-10-08T01:55:55.984Z,29.20
2017-10-08T01:58:26.822Z,29.20
2017-10-08T02:00:57.352Z,29.10
2017-10-08T02:03:28.289Z,29.10
2017-10-08T02:05:58.788Z,29.20
2017-10-08T02:08:29.845Z,29.20
2017-10-08T02:11:00.360Z,29.40
2017-10-08T02:13:31.073Z,29.50
2017-10-08T02:16:02.360Z,29.70
2017-10-08T02:18:32.916Z,29.70
2017-10-08T02:21:03.626Z,29.70
2017-10-08T02:23:34.143Z,29.90
2017-10-08T02:26:04.653Z,30.00
2017-10-08T02:28:35.178Z,30.10
2017-10-08T02:31:06.457Z,30.20
2017-10-08T02:33:36.959Z,30.20
2017-10-08T02:36:07.467Z,30.30
2017-10-08T02:38:39.265Z,30.50
2017-10-08T02:41:09.783Z,30.40
2017-10-08T02:43:40.276Z,30.60
2017-10-08T02:46:11.565Z,30.80
2017-10-08T02:48:42.088Z,30.80
2017-10-08T02:51:13.137Z,30.80
2017-10-08T02:53:43.640Z,30.90
2017-10-08T02:56:16.352Z,31.10
2017-10-08T02:58:46.874Z,31.10
2017-10-08T03:01:17.409Z,31.20
2017-10-08T03:03:47.936Z,31.30
2017-10-08T03:06:18.453Z,31.20
2017-10-08T03:08:49.348Z,31.00
2017-10-08T03:11:19.850Z,30.80
2017-10-08T03:13:50.331Z,30.70
2017-10-08T03:16:21.599Z,30.40
2017-10-08T03:18:52.134Z,30.40
2017-10-08T03:21:23.080Z,30.30
2017-10-08T03:23:53.589Z,30.30
2017-10-08T03:26:24.475Z,30.40
2017-10-08T03:28:55.054Z,30.70
2017-10-08T03:31:25.603Z,30.80
2017-10-08T03:33:56.908Z,31.00
2017-10-08T03:36:28.204Z,31.20
2017-10-08T03:38:59.325Z,31.10
2017-10-08T03:41:29.830Z,31.30
2017-10-08T03:44:01.100Z,31.50
2017-10-08T03:46:31.603Z,31.50
2017-10-08T03:49:02.879Z,31.70
2017-10-08T03:51:33.771Z,31.70
2017-10-08T03:54:05.064Z,31.80
2017-10-08T03:56:35.992Z,31.80
2017-10-08T03:59:06.492Z,31.90
2017-10-08T04:01:37.783Z,32.00
2017-10-08T04:04:08.300Z,32.00
2017-10-08T04:06:38.807Z,32.00
2017-10-08T04:09:10.404Z,31.90
2017-10-08T04:11:41.060Z,31.90
2017-10-08T04:14:11.656Z,31.80
2017-10-08T04:16:42.355Z,31.80
2017-10-08T04:19:13.867Z,31.90
2017-10-08T04:21:45.551Z,31.80
2017-10-08T04:24:16.888Z,31.90
2017-10-08T04:26:47.899Z,31.90
2017-10-08T04:29:18.451Z,32.00
2017-10-08T04:31:48.980Z,32.00
2017-10-08T04:34:19.485Z,32.10
2017-10-08T04:36:49.992Z,32.20
2017-10-08T04:39:21.029Z,32.30
2017-10-08T04:41:51.543Z,32.40
2017-10-08T04:44:22.071Z,32.40
2017-10-08T04:46:52.568Z,32.50
2017-10-08T04:49:23.113Z,32.50
2017-10-08T04:51:54.687Z,32.60
2017-10-08T04:54:25.221Z,32.60
2017-10-08T04:56:56.189Z,32.70
2017-10-08T04:59:26.696Z,32.70
2017-10-08T05:01:57.212Z,32.70
2017-10-08T05:04:27.724Z,32.80
2017-10-08T05:06:59.038Z,32.80
2017-10-08T05:09:29.853Z,32.80
2017-10-08T05:12:00.369Z,32.70
2017-10-08T05:14:30.885Z,32.70
2017-10-08T05:17:01.414Z,32.60
2017-10-08T05:19:31.942Z,32.60
2017-10-08T05:22:03.716Z,32.70
2017-10-08T05:24:35.044Z,32.80
2017-10-08T05:27:05.945Z,32.80
2017-10-08T05:29:36.472Z,32.80
2017-10-08T05:32:06.981Z,32.70
2017-10-08T05:34:37.490Z,32.80
2017-10-08T05:37:08.004Z,32.80
2017-10-08T05:39:39.048Z,32.70
2017-10-08T05:42:09.562Z,32.70
2017-10-08T05:44:40.063Z,32.60
2017-10-08T05:47:10.593Z,32.60
2017-10-08T05:49:41.104Z,32.70
2017-10-08T05:52:11.599Z,32.70
2017-10-08T05:54:42.088Z,32.70
2017-10-08T05:57:13.758Z,32.90
2017-10-08T05:59:44.262Z,32.90
2017-10-08T06:02:15.565Z,33.10
2017-10-08T06:04:46.258Z,33.00
2017-10-08T06:07:17.518Z,32.90
2017-10-08T06:09:48.680Z,32.90
2017-10-08T06:12:19.209Z,32.90
2017-10-08T06:14:49.846Z,32.70
2017-10-08T06:17:20.369Z,32.50
2017-10-08T06:19:51.101Z,32.60
2017-10-08T06:22:21.632Z,32.70
2017-10-08T06:24:53.014Z,32.80
2017-10-08T06:27:23.852Z,32.80
2017-10-08T06:29:54.346Z,32.80
2017-10-08T06:32:24.833Z,32.70
2017-10-08T06:34:56.120Z,32.60
2017-10-08T06:37:27.756Z,32.60
2017-10-08T06:39:59.609Z,32.50
2017-10-08T06:42:30.151Z,32.50
2017-10-08T06:45:01.653Z,32.50
2017-10-08T06:47:32.179Z,32.50
2017-10-08T06:50:04.450Z,32.50
2017-10-08T06:52:34.605Z,32.50
2017-10-08T06:55:06.058Z,32.60
2017-10-08T06:57:36.856Z,32.60
2017-10-08T07:00:07.310Z,32.70
2017-10-08T07:02:38.589Z,32.70
2017-10-08T07:05:09.113Z,32.70
2017-10-08T07:07:39.637Z,32.80
2017-10-08T07:10:10.530Z,32.80
2017-10-08T07:12:41.031Z,32.80
2017-10-08T07:15:11.881Z,32.80
2017-10-08T07:17:42.380Z,32.90
2017-10-08T07:20:12.881Z,32.90
2017-10-08T07:22:44.174Z,33.00
2017-10-08T07:25:14.676Z,33.00
2017-10-08T07:27:45.569Z,33.00
2017-10-08T07:30:16.090Z,33.00
2017-10-08T07:32:46.584Z,32.90
2017-10-08T07:35:17.121Z,32.90
2017-10-08T07:37:47.633Z,33.00
2017-10-08T07:40:20.252Z,33.00
2017-10-08T07:42:50.749Z,33.10
2017-10-08T07:45:21.611Z,33.00
2017-10-08T07:47:52.141Z,33.10
2017-10-08T07:50:22.644Z,33.10
2017-10-08T07:52:53.155Z,33.10
2017-10-08T07:55:23.693Z,33.10
2017-10-08T07:57:54.756Z,33.00
2017-10-08T08:00:25.272Z,33.00
2017-10-08T08:02:55.801Z,32.90
2017-10-08T08:05:26.285Z,32.90
2017-10-08T08:07:56.849Z,32.90
2017-10-08T08:10:27.803Z,32.90
2017-10-08T08:12:58.341Z,32.90
2017-10-08T08:15:29.208Z,32.90
2017-10-08T08:18:00.505Z,32.70
2017-10-08T08:20:31.036Z,32.70
2017-10-08T08:23:01.578Z,32.70
2017-10-08T08:25:32.152Z,32.60
2017-10-08T08:28:04.041Z,32.50
2017-10-08T08:30:34.549Z,32.50
2017-10-08T08:33:05.858Z,32.40
2017-10-08T08:35:36.347Z,32.40
2017-10-08T08:38:06.879Z,32.40
2017-10-08T08:40:37.864Z,32.30
2017-10-08T08:43:08.383Z,32.30
2017-10-08T08:45:39.195Z,32.20
2017-10-08T08:48:09.720Z,32.20
2017-10-08T08:50:40.233Z,32.20
2017-10-08T08:53:10.728Z,32.20
2017-10-08T08:55:42.036Z,32.10
2017-10-08T08:58:13.184Z,32.10
2017-10-08T09:00:43.764Z,32.10
2017-10-08T09:03:14.276Z,32.10
2017-10-08T09:05:45.589Z,32.00
2017-10-08T09:08:16.101Z,32.00
2017-10-08T09:10:46.826Z,32.00
2017-10-08T09:13:17.544Z,31.90
2017-10-08T09:15:48.392Z,31.90
2017-10-08T09:18:18.905Z,31.90
2017-10-08T09:20:49.428Z,31.90
2017-10-08T09:23:20.715Z,31.70
2017-10-08T09:25:51.202Z,31.70
2017-10-08T09:28:22.991Z,31.60
2017-10-08T09:30:53.514Z,31.60
2017-10-08T09:33:24.799Z,31.60
2017-10-08T09:35:55.325Z,31.60
2017-10-08T09:38:25.860Z,31.60
2017-10-08T09:40:56.346Z,31.50
2017-10-08T09:43:26.849Z,31.50
2017-10-08T09:45:58.468Z,31.30
2017-10-08T09:48:29.197Z,31.30
2017-10-08T09:50:59.717Z,31.20
2017-10-08T09:53:35.483Z,31.10
2017-10-08T09:56:06.010Z,31.00
2017-10-08T09:58:36.703Z,30.90
2017-10-08T10:01:07.207Z,30.80
2017-10-08T10:03:38.488Z,30.70
2017-10-08T10:06:09.017Z,30.70
2017-10-08T10:08:39.521Z,30.70
2017-10-08T10:11:10.041Z,30.70
2017-10-08T10:13:40.570Z,30.60
2017-10-08T10:16:12.274Z,30.50
2017-10-08T10:18:42.789Z,30.50
2017-10-08T10:21:13.313Z,30.50
2017-10-08T10:23:43.824Z,30.50
2017-10-08T10:26:14.358Z,30.40
2017-10-08T10:28:45.419Z,30.30
2017-10-08T10:31:15.933Z,30.30
2017-10-08T10:33:46.833Z,30.30
2017-10-08T10:36:18.120Z,30.20
2017-10-08T10:38:48.697Z,30.20
2017-10-08T10:41:19.218Z,30.20
2017-10-08T10:43:49.755Z,30.20
2017-10-08T10:46:20.669Z,30.10
2017-10-08T10:48:51.180Z,30.00
2017-10-08T10:51:21.688Z,30.00
2017-10-08T10:53:52.379Z,30.00
2017-10-08T10:56:22.993Z,29.90
2017-10-08T10:58:54.317Z,29.90
2017-10-08T11:01:24.808Z,29.90
2017-10-08T11:03:56.344Z,29.90
2017-10-08T11:06:26.837Z,29.90
2017-10-08T11:08:57.360Z,29.90
2017-10-08T11:11:27.875Z,29.90
2017-10-08T11:13:58.455Z,29.90
2017-10-08T11:16:29.256Z,29.80
2017-10-08T11:18:59.765Z,29.80
2017-10-08T11:21:30.281Z,29.80
2017-10-08T11:24:00.833Z,29.70
2017-10-08T11:26:31.399Z,29.70
2017-10-08T11:29:02.247Z,29.60
2017-10-08T11:31:32.752Z,29.60
2017-10-08T11:34:03.768Z,29.60
2017-10-08T11:36:34.303Z,29.60
2017-10-08T11:39:05.051Z,29.60
2017-10-08T11:41:35.561Z,29.60
2017-10-08T11:44:06.076Z,29.60
2017-10-08T11:46:36.736Z,29.60
2017-10-08T11:49:07.249Z,29.60
2017-10-08T11:51:37.760Z,29.60
2017-10-08T11:54:09.065Z,29.60
2017-10-08T11:56:39.593Z,29.60
2017-10-08T11:59:10.525Z,29.60
2017-10-08T12:01:41.064Z,29.60
2017-10-08T12:04:12.865Z,29.60
2017-10-08T12:06:43.393Z,29.60
2017-10-08T12:09:14.061Z,29.60
2017-10-08T12:11:44.609Z,29.60
2017-10-08T12:14:16.417Z,29.60
2017-10-08T12:16:48.092Z,29.60
2017-10-08T12:19:19.325Z,29.50
2017-10-08T12:21:49.831Z,29.50
2017-10-08T12:24:21.105Z,29.50
2017-10-08T12:26:51.833Z,29.50
2017-10-08T12:29:22.854Z,29.50
2017-10-08T12:31:54.120Z,29.50
2017-10-08T12:34:25.167Z,29.50
2017-10-08T12:36:55.693Z,29.40
2017-10-08T12:39:26.272Z,29.40
2017-10-08T12:41:56.773Z,29.40
2017-10-08T12:44:27.272Z,29.40
2017-10-08T12:46:58.087Z,29.40
2017-10-08T12:49:29.351Z,29.40
2017-10-08T12:51:59.869Z,29.40
2017-10-08T12:54:30.383Z,29.40
2017-10-08T12:57:01.667Z,29.40
2017-10-08T12:59:32.189Z,29.40
2017-10-08T13:02:02.682Z,29.30
2017-10-08T13:04:35.089Z,29.30
2017-10-08T13:07:05.600Z,29.30
2017-10-08T13:09:36.877Z,29.30
2017-10-08T13:12:07.401Z,29.30
2017-10-08T13:14:37.917Z,29.30
2017-10-08T13:17:08.802Z,29.30
2017-10-08T13:19:39.336Z,29.30
2017-10-08T13:22:09.873Z,29.30
2017-10-08T13:24:40.560Z,29.30
2017-10-08T13:27:11.052Z,29.30
2017-10-08T13:29:42.342Z,29.10
2017-10-08T13:32:12.893Z,29.10
2017-10-08T13:34:43.902Z,29.00
2017-10-08T13:37:14.409Z,29.00
2017-10-08T13:39:44.936Z,28.90
2017-10-08T13:42:15.456Z,28.80
2017-10-08T13:44:46.746Z,28.80
2017-10-08T13:47:17.706Z,28.80
2017-10-08T13:49:48.216Z,28.70
2017-10-08T13:52:19.132Z,28.70
2017-10-08T13:54:49.638Z,28.70
2017-10-08T13:57:20.921Z,28.60
2017-10-08T13:59:51.428Z,28.70
2017-10-08T14:02:22.028Z,28.60
2017-10-08T14:04:53.653Z,28.60
2017-10-08T14:07:24.204Z,28.60
2017-10-08T14:09:54.725Z,28.60
2017-10-08T14:12:25.235Z,28.50
2017-10-08T14:14:55.812Z,28.50
2017-10-08T14:17:28.154Z,27.60
2017-10-08T14:19:58.648Z,28.40
2017-10-08T14:22:29.410Z,28.50
2017-10-08T14:24:59.922Z,28.50
2017-10-08T14:27:31.196Z,28.40
2017-10-08T14:30:01.722Z,28.40
2017-10-08T14:32:33.936Z,28.40
2017-10-08T14:35:04.704Z,28.40
2017-10-08T14:37:35.209Z,28.40
2017-10-08T14:40:05.728Z,28.40
2017-10-08T14:42:36.240Z,28.40
2017-10-08T14:45:07.558Z,28.30
2017-10-08T14:47:38.401Z,28.30
2017-10-08T14:50:09.707Z,28.30
2017-10-08T14:52:40.583Z,28.30
2017-10-08T14:55:11.902Z,28.30
2017-10-08T14:57:42.418Z,28.30
2017-10-08T15:00:12.958Z,28.30
2017-10-08T15:02:43.472Z,28.30
2017-10-08T15:05:14.160Z,28.40
2017-10-08T15:07:45.421Z,28.50
2017-10-08T15:10:16.913Z,28.50
2017-10-08T15:12:47.628Z,28.40
2017-10-08T15:15:19.183Z,28.40
2017-10-08T15:17:50.658Z,28.40
2017-10-08T15:20:21.309Z,28.40
2017-10-08T15:22:52.017Z,28.40
2017-10-08T15:25:22.542Z,28.40
2017-10-08T15:27:53.058Z,28.40
2017-10-08T15:30:23.564Z,28.40
2017-10-08T15:32:54.861Z,28.30
2017-10-08T15:35:25.772Z,28.30
2017-10-08T15:37:56.275Z,28.30
2017-10-08T15:40:27.560Z,28.20
2017-10-08T15:42:58.093Z,27.30
2017-10-08T15:45:28.607Z,28.20
2017-10-08T15:47:59.767Z,28.20
2017-10-08T15:50:30.536Z,28.20
2017-10-08T15:53:01.526Z,28.20
2017-10-08T15:55:32.055Z,28.20
2017-10-08T15:58:02.570Z,28.20
2017-10-08T16:00:33.096Z,28.20
2017-10-08T16:03:03.617Z,28.20
2017-10-08T16:05:34.536Z,28.30
2017-10-08T16:08:05.812Z,28.40
2017-10-08T16:10:36.329Z,28.40
2017-10-08T16:13:07.598Z,28.30
2017-10-08T16:15:38.145Z,28.30
2017-10-08T16:18:08.924Z,28.20
2017-10-08T16:20:40.215Z,28.20
2017-10-08T16:23:11.140Z,28.20
2017-10-08T16:25:41.665Z,28.20
2017-10-08T16:28:12.179Z,28.10
2017-10-08T16:30:43.470Z,28.00
2017-10-08T16:33:13.948Z,28.00
2017-10-08T16:35:46.183Z,27.90
2017-10-08T16:38:17.318Z,27.90
2017-10-08T16:40:47.910Z,27.90
2017-10-08T16:43:18.650Z,28.00
2017-10-08T16:45:49.163Z,28.00
2017-10-08T16:48:20.017Z,28.00
2017-10-08T16:50:50.544Z,28.00
2017-10-08T16:53:21.483Z,28.00
2017-10-08T16:55:52.016Z,28.00
2017-10-08T16:58:22.547Z,28.00
2017-10-08T17:00:53.065Z,28.00
2017-10-08T17:03:23.604Z,28.00
2017-10-08T17:05:54.534Z,27.90
2017-10-08T17:08:25.100Z,27.90
2017-10-08T17:10:55.630Z,27.80
2017-10-08T17:13:26.525Z,27.80
2017-10-08T17:15:57.093Z,27.80
2017-10-08T17:18:27.578Z,27.80
2017-10-08T17:20:58.124Z,27.80
2017-10-08T17:23:29.004Z,27.70
2017-10-08T17:25:59.526Z,27.60
2017-10-08T17:28:30.050Z,27.60
2017-10-08T17:31:00.559Z,27.50
2017-10-08T17:33:31.082Z,27.40
2017-10-08T17:36:01.965Z,27.30
2017-10-08T17:38:32.480Z,27.20
2017-10-08T17:41:03.404Z,27.10
2017-10-08T17:43:33.943Z,27.00
2017-10-08T17:46:04.456Z,26.90
2017-10-08T17:48:34.961Z,26.70
2017-10-08T17:51:05.506Z,26.50
2017-10-08T17:53:36.441Z,26.40
2017-10-08T17:56:06.965Z,26.30
2017-10-08T17:58:37.480Z,26.20
2017-10-08T18:01:08.013Z,26.20
2017-10-08T18:03:38.526Z,26.20
2017-10-08T18:06:10.251Z,26.10
2017-10-08T18:08:40.745Z,26.10
2017-10-08T18:11:11.781Z,26.00
2017-10-08T18:13:42.497Z,26.00
2017-10-08T18:16:13.427Z,25.90
2017-10-08T18:18:44.084Z,25.90
2017-10-08T18:21:14.652Z,25.90
2017-10-08T18:23:45.853Z,25.90
2017-10-08T18:26:16.593Z,25.90
2017-10-08T18:28:47.124Z,25.90
2017-10-08T18:31:17.828Z,25.90
2017-10-08T18:33:48.574Z,25.90
2017-10-08T18:36:19.669Z,25.90
2017-10-08T18:38:50.257Z,25.90
2017-10-08T18:41:21.232Z,25.90
2017-10-08T18:43:51.763Z,25.90
2017-10-08T18:46:22.280Z,25.90
2017-10-08T18:48:52.780Z,25.90
2017-10-08T18:51:23.277Z,26.00
2017-10-08T18:53:54.903Z,25.90
2017-10-08T18:56:26.117Z,25.90
2017-10-08T18:58:56.637Z,26.00
2017-10-08T19:01:27.171Z,25.90
2017-10-08T19:03:57.688Z,25.90
2017-10-08T19:06:28.584Z,25.90
2017-10-08T19:08:59.095Z,25.90
2017-10-08T19:11:30.652Z,25.90
2017-10-08T19:14:01.182Z,26.00
2017-10-08T19:16:32.464Z,26.00
2017-10-08T19:19:03.733Z,26.10
2017-10-08T19:21:34.253Z,26.10
2017-10-08T19:24:05.300Z,26.10
2017-10-08T19:26:35.816Z,26.10
2017-10-08T19:29:06.312Z,26.10
2017-10-08T19:31:36.852Z,26.10
2017-10-08T19:34:08.151Z,26.10
2017-10-08T19:36:38.897Z,26.10
2017-10-08T19:39:09.413Z,26.10
2017-10-08T19:41:40.277Z,26.10
2017-10-08T19:44:10.761Z,26.10
2017-10-08T19:46:41.267Z,26.10
2017-10-08T19:49:12.593Z,26.10
2017-10-08T19:51:43.114Z,26.10
2017-10-08T19:54:13.948Z,26.00
2017-10-08T19:56:44.493Z,26.00
2017-10-08T19:59:16.188Z,26.00
2017-10-08T20:01:46.689Z,26.00
2017-10-08T20:04:17.949Z,26.10
2017-10-08T20:06:48.469Z,26.10
2017-10-08T20:09:19.217Z,26.10
2017-10-08T20:11:50.304Z,26.20
2017-10-08T20:14:20.825Z,26.20
2017-10-08T20:16:51.325Z,26.20
2017-10-08T20:19:21.841Z,26.10
2017-10-08T20:21:52.356Z,26.10
2017-10-08T20:24:23.801Z,26.00
2017-10-08T20:26:55.072Z,26.00
2017-10-08T20:29:25.857Z,26.00
2017-10-08T20:31:56.384Z,25.90
2017-10-08T20:34:26.925Z,25.90
2017-10-08T20:36:57.448Z,25.90
2017-10-08T20:39:29.232Z,25.90
2017-10-08T20:42:00.781Z,25.90
2017-10-08T20:44:32.061Z,25.90
2017-10-08T20:47:02.578Z,25.90
2017-10-08T20:49:33.082Z,26.00
2017-10-08T20:52:04.357Z,25.80
2017-10-08T20:54:35.507Z,25.80
2017-10-08T20:57:06.030Z,25.80
2017-10-08T20:59:37.073Z,25.80
2017-10-08T21:02:07.597Z,25.80
2017-10-08T21:04:38.105Z,25.80
2017-10-08T21:07:09.630Z,25.80
2017-10-08T21:09:40.361Z,25.80
2017-10-08T21:12:11.508Z,25.80
2017-10-08T21:14:42.231Z,25.80
2017-10-08T21:17:12.729Z,25.90
2017-10-08T21:19:43.430Z,25.90
2017-10-08T21:22:14.739Z,25.90
2017-10-08T21:24:45.321Z,25.90
2017-10-08T21:27:15.819Z,25.90
2017-10-08T21:29:46.696Z,25.90
2017-10-08T21:32:17.205Z,25.90
2017-10-08T21:34:48.675Z,25.90
2017-10-08T21:37:19.199Z,25.90
2017-10-08T21:39:49.941Z,25.90
2017-10-08T21:42:20.880Z,25.90
2017-10-08T21:44:51.377Z,25.90
2017-10-08T21:47:22.641Z,25.90
2017-10-08T21:49:53.132Z,25.90
2017-10-08T21:52:23.850Z,25.90
2017-10-08T21:54:54.604Z,26.00
2017-10-08T21:57:25.882Z,26.00
2017-10-08T21:59:56.943Z,26.00
2017-10-08T22:02:27.471Z,26.00
2017-10-08T22:04:57.966Z,26.00
2017-10-08T22:07:29.239Z,26.10
2017-10-08T22:09:59.808Z,26.00
2017-10-08T22:12:30.611Z,26.00
2017-10-08T22:15:01.133Z,26.00
2017-10-08T22:17:31.664Z,26.00
2017-10-08T22:20:02.201Z,26.00
2017-10-08T22:22:32.678Z,25.90
2017-10-08T22:25:04.208Z,25.90
2017-10-08T22:27:34.963Z,25.90
2017-10-08T22:30:06.011Z,25.90
2017-10-08T22:32:37.296Z,25.90
2017-10-08T22:35:07.788Z,25.90
2017-10-08T22:37:40.113Z,25.90
2017-10-08T22:40:10.781Z,25.90
2017-10-08T22:42:41.664Z,25.90
2017-10-08T22:45:12.161Z,25.90
2017-10-08T22:47:43.455Z,25.80
2017-10-08T22:50:13.993Z,25.80
2017-10-08T22:52:44.507Z,25.90
2017-10-08T22:55:15.015Z,25.80
2017-10-08T22:57:45.546Z,25.80
2017-10-08T23:00:16.909Z,25.80
2017-10-08T23:02:47.405Z,25.80
2017-10-08T23:05:18.669Z,25.70
2017-10-08T23:07:49.177Z,25.70
2017-10-08T23:10:20.448Z,25.70
2017-10-08T23:12:51.337Z,25.70
2017-10-08T23:15:21.903Z,25.70
2017-10-08T23:17:52.519Z,25.70
2017-10-08T23:20:23.783Z,25.70
2017-10-08T23:22:54.477Z,25.70
2017-10-08T23:25:24.985Z,25.70
2017-10-08T23:27:55.512Z,25.80
2017-10-08T23:30:26.543Z,25.80
2017-10-08T23:32:57.068Z,25.90
2017-10-08T23:35:27.572Z,25.90
2017-10-08T23:37:58.089Z,26.00
2017-10-08T23:40:29.348Z,26.00
2017-10-08T23:43:00.337Z,26.00
2017-10-08T23:45:30.852Z,26.10
2017-10-08T23:48:04.314Z,26.10
2017-10-08T23:50:34.821Z,26.20
2017-10-08T23:53:06.128Z,26.30
2017-10-08T23:55:36.647Z,26.30
2017-10-08T23:58:07.173Z,26.40
